createdAt,value
2023-01-25T00:05:00.398Z,-2.94
2023-01-25T00:10:04.066Z,-2.93
2023-01-25T00:15:08.357Z,-2.94
2023-01-25T00:20:11.572Z,-2.95
2023-01-25T00:25:14.762Z,-2.98
2023-01-25T00:30:18.177Z,-3.00
2023-01-25T00:35:22.003Z,-3.02
2023-01-25T00:40:25.211Z,-3.03
2023-01-25T00:45:28.430Z,-3.05
2023-01-25T00:50:31.642Z,-3.08
2023-01-25T00:55:34.851Z,-3.10
2023-01-25T01:00:37.960Z,-3.13
2023-01-25T01:05:40.965Z,-3.15
2023-01-25T01:10:43.976Z,-3.16
2023-01-25T01:15:47.081Z,-3.19
2023-01-25T01:20:51.967Z,-3.23
2023-01-25T01:25:54.933Z,-3.26
2023-01-25T01:31:06.950Z,-3.30
2023-01-25T01:36:15.017Z,-3.34
2023-01-25T01:41:18.977Z,-3.36
2023-01-25T01:46:35.327Z,-3.38
2023-01-25T01:51:44.375Z,-3.40
2023-01-25T01:56:54.238Z,-3.41
2023-01-25T02:01:57.251Z,-3.45
2023-01-25T02:07:15.262Z,-3.50
2023-01-25T02:12:21.282Z,-3.56
2023-01-25T02:17:34.114Z,-3.63
2023-01-25T02:23:05.808Z,-3.67
2023-01-25T02:28:17.060Z,-3.70
2023-01-25T02:33:23.698Z,-3.72
2023-01-25T02:38:27.057Z,-3.76
2023-01-25T02:43:33.558Z,-3.80
2023-01-25T02:48:36.906Z,-3.85
2023-01-25T02:53:40.499Z,-3.88
2023-01-25T02:58:43.902Z,-3.91
2023-01-25T03:03:46.963Z,-3.95
2023-01-25T03:08:50.260Z,-3.99
2023-01-25T03:13:53.573Z,-4.02
2023-01-25T03:18:56.683Z,-4.03
2023-01-25T03:24:02.099Z,-4.04
2023-01-25T03:29:05.153Z,-4.04
2023-01-25T03:34:08.060Z,-4.05
2023-01-25T03:39:10.962Z,-4.05
2023-01-25T03:44:14.283Z,-4.03
2023-01-25T03:49:18.728Z,-4.00
2023-01-25T03:54:21.720Z,-4.02
2023-01-25T03:59:24.954Z,-4.00
2023-01-25T04:04:27.937Z,-4.00
2023-01-25T04:09:30.849Z,-4.02
2023-01-25T04:14:43.931Z,-4.04
2023-01-25T04:19:48.324Z,-4.04
2023-01-25T04:24:51.334Z,-4.03
2023-01-25T04:29:54.444Z,-4.04
2023-01-25T04:34:57.955Z,-4.05
2023-01-25T04:40:00.962Z,-4.05
2023-01-25T04:45:04.282Z,-4.02
2023-01-25T04:50:07.448Z,-4.01
2023-01-25T04:55:10.671Z,-3.99
2023-01-25T05:00:14.541Z,-3.99
2023-01-25T05:05:17.839Z,-3.98
2023-01-25T05:10:21.405Z,-3.95
2023-01-25T05:15:24.364Z,-3.93
2023-01-25T05:20:27.267Z,-3.94
2023-01-25T05:25:49.021Z,-3.96
2023-01-25T05:30:51.956Z,-3.97
2023-01-25T05:35:56.476Z,-3.96
2023-01-25T05:40:59.876Z,-3.95
2023-01-25T05:46:02.936Z,-3.92
2023-01-25T05:51:07.061Z,-3.90
2023-01-25T05:56:13.020Z,-3.90
2023-01-25T06:01:16.101Z,-3.89
2023-01-25T06:06:19.724Z,-3.86
2023-01-25T06:11:24.438Z,-3.86
2023-01-25T06:16:27.887Z,-3.84
2023-01-25T06:21:31.298Z,-3.81
2023-01-25T06:26:34.535Z,-3.79
2023-01-25T06:31:37.637Z,-3.76
2023-01-25T06:36:40.729Z,-3.72
2023-01-25T06:41:43.844Z,-3.66
2023-01-25T06:46:46.889Z,-3.60
2023-01-25T06:51:49.876Z,-3.57
2023-01-25T06:56:53.065Z,-3.52
2023-01-25T07:01:56.195Z,-3.47
2023-01-25T07:06:59.391Z,-3.42
2023-01-25T07:12:04.868Z,-3.37
2023-01-25T07:17:07.852Z,-3.33
2023-01-25T07:22:11.066Z,-3.28
2023-01-25T07:27:14.271Z,-3.19
2023-01-25T07:32:17.380Z,-3.09
2023-01-25T07:37:20.386Z,-2.99
2023-01-25T07:42:23.602Z,-2.89
2023-01-25T07:47:27.321Z,-2.77
2023-01-25T07:52:30.327Z,-2.68
2023-01-25T07:57:33.434Z,-2.61
2023-01-25T08:02:36.443Z,-2.52
2023-01-25T08:07:39.661Z,-2.48
2023-01-25T08:12:46.746Z,-2.40
2023-01-25T08:17:49.664Z,-2.29
2023-01-25T08:22:53.398Z,-2.20
2023-01-25T08:27:56.394Z,-2.12
2023-01-25T08:32:59.701Z,-2.05
2023-01-25T08:38:04.062Z,-2.00
2023-01-25T08:43:07.049Z,-1.95
2023-01-25T08:48:13.136Z,-1.91
2023-01-25T08:53:16.546Z,-1.82
2023-01-25T08:58:20.062Z,-1.73
2023-01-25T09:03:23.092Z,-1.64
2023-01-25T09:08:26.279Z,-1.60
2023-01-25T09:13:29.708Z,-1.56
2023-01-25T09:18:34.354Z,-1.51
2023-01-25T09:23:50.743Z,-1.49
2023-01-25T09:29:00.838Z,-1.46
2023-01-25T09:34:03.948Z,-1.41
2023-01-25T09:39:07.354Z,-1.34
2023-01-25T09:44:47.952Z,-1.28
2023-01-25T09:49:57.196Z,-1.18
2023-01-25T09:55:00.976Z,-1.09
2023-01-25T10:00:30.350Z,-1.05
2023-01-25T10:05:42.473Z,-1.01
2023-01-25T10:10:49.025Z,-0.95
2023-01-25T10:16:20.878Z,-0.92
2023-01-25T10:21:35.522Z,-0.90
2023-01-25T10:26:43.188Z,-0.82
2023-01-25T10:31:54.925Z,-0.63
2023-01-25T10:37:03.221Z,-0.41
2023-01-25T10:42:12.020Z,-0.29
2023-01-25T10:47:27.211Z,-0.26
2023-01-25T10:52:32.460Z,-0.26
2023-01-25T10:57:36.497Z,-0.28
2023-01-25T11:02:45.584Z,-0.30
2023-01-25T11:07:49.231Z,-0.35
2023-01-25T11:13:12.140Z,-0.39
2023-01-25T11:18:35.372Z,-0.45
2023-01-25T11:23:38.548Z,-0.47
2023-01-25T11:28:42.289Z,-0.49
2023-01-25T11:33:45.591Z,-0.47
2023-01-25T11:38:53.490Z,-0.39
2023-01-25T11:44:22.006Z,-0.25
2023-01-25T11:49:38.219Z,-0.19
2023-01-25T11:55:12.446Z,-0.21
2023-01-25T12:00:36.410Z,-0.25
2023-01-25T12:06:01.091Z,-0.31
2023-01-25T12:11:14.924Z,-0.38
2023-01-25T12:16:38.206Z,-0.39
2023-01-25T12:22:05.584Z,-0.39
2023-01-25T12:27:38.297Z,-0.45
2023-01-25T12:33:13.951Z,-0.46
2023-01-25T12:38:27.289Z,-0.40
2023-01-25T12:43:45.159Z,-0.37
2023-01-25T12:48:53.477Z,-0.37
2023-01-25T12:53:58.871Z,-0.38
2023-01-25T12:59:28.993Z,-0.40
2023-01-25T13:04:31.999Z,-0.43
2023-01-25T13:09:45.044Z,-0.45
2023-01-25T13:14:48.251Z,-0.50
2023-01-25T13:19:53.495Z,-0.59
2023-01-25T13:25:02.767Z,-0.69
2023-01-25T13:30:12.160Z,-0.79
2023-01-25T13:35:28.950Z,-0.87
2023-01-25T13:40:39.307Z,-0.91
2023-01-25T13:45:43.632Z,-0.96
2023-01-25T13:51:11.669Z,-1.02
2023-01-25T13:56:31.058Z,-1.09
2023-01-25T14:01:36.222Z,-1.14
2023-01-25T14:06:41.568Z,-1.18
2023-01-25T14:11:56.861Z,-1.20
2023-01-25T14:17:09.560Z,-1.29
2023-01-25T14:22:31.253Z,-1.38
2023-01-25T14:27:37.631Z,-1.46
2023-01-25T14:32:41.974Z,-1.49
2023-01-25T14:37:44.976Z,-1.52
2023-01-25T14:42:49.102Z,-1.53
2023-01-25T14:47:59.398Z,-1.54
2023-01-25T14:53:19.538Z,-1.58
2023-01-25T14:58:25.371Z,-1.64
2023-01-25T15:03:31.005Z,-1.70
2023-01-25T15:08:39.205Z,-1.79
2023-01-25T15:13:42.476Z,-1.86
2023-01-25T15:18:53.635Z,-1.92
2023-01-25T15:23:59.559Z,-1.98
2023-01-25T15:29:14.003Z,-2.04
2023-01-25T15:34:27.381Z,-2.09
2023-01-25T15:39:31.707Z,-2.09
2023-01-25T15:44:34.726Z,-2.08
2023-01-25T15:49:39.736Z,-2.07
2023-01-25T15:54:55.856Z,-2.07
2023-01-25T16:00:06.559Z,-2.06
2023-01-25T16:05:09.684Z,-2.05
2023-01-25T16:10:31.011Z,-2.07
2023-01-25T16:15:34.223Z,-2.09
2023-01-25T16:20:37.232Z,-2.14
2023-01-25T16:25:41.667Z,-2.18
2023-01-25T16:30:45.347Z,-2.21
2023-01-25T16:36:18.815Z,-2.21
2023-01-25T16:41:22.213Z,-2.19
2023-01-25T16:46:25.329Z,-2.17
2023-01-25T16:51:29.057Z,-2.13
2023-01-25T16:56:33.545Z,-2.11
2023-01-25T17:01:38.775Z,-2.13
2023-01-25T17:06:44.736Z,-2.13
2023-01-25T17:11:48.151Z,-2.12
2023-01-25T17:16:53.820Z,-2.11
2023-01-25T17:21:59.210Z,-2.13
2023-01-25T17:27:02.990Z,-2.14
2023-01-25T17:32:06.014Z,-2.14
2023-01-25T17:37:09.015Z,-2.12
2023-01-25T17:42:13.364Z,-2.12
2023-01-25T17:47:16.385Z,-2.12
2023-01-25T17:52:19.341Z,-2.10
2023-01-25T17:57:24.214Z,-2.09
2023-01-25T18:02:27.293Z,-2.12
2023-01-25T18:07:30.336Z,-2.13
2023-01-25T18:12:33.340Z,-2.14
2023-01-25T18:17:38.432Z,-2.14
2023-01-25T18:22:42.120Z,-2.13
2023-01-25T18:27:45.234Z,-2.14
2023-01-25T18:32:48.231Z,-2.12
2023-01-25T18:37:52.071Z,-2.11
2023-01-25T18:42:55.170Z,-2.10
2023-01-25T18:47:59.056Z,-2.07
2023-01-25T18:53:02.103Z,-2.03
2023-01-25T18:58:05.622Z,-2.01
2023-01-25T19:03:08.781Z,-1.98
2023-01-25T19:08:11.837Z,-1.96
2023-01-25T19:13:14.854Z,-1.93
2023-01-25T19:18:17.846Z,-1.92
2023-01-25T19:23:20.957Z,-1.91
2023-01-25T19:28:24.271Z,-1.89
2023-01-25T19:33:27.280Z,-1.89
2023-01-25T19:38:32.083Z,-1.86
2023-01-25T19:43:35.139Z,-1.86
2023-01-25T19:48:39.447Z,-1.85
2023-01-25T19:53:48.769Z,-1.84
2023-01-25T19:58:51.846Z,-1.82
2023-01-25T20:03:59.658Z,-1.80
2023-01-25T20:09:02.868Z,-1.79
2023-01-25T20:14:07.200Z,-1.78
2023-01-25T20:19:12.026Z,-1.77
2023-01-25T20:24:15.121Z,-1.74
2023-01-25T20:29:18.173Z,-1.75
2023-01-25T20:34:23.020Z,-1.79
2023-01-25T20:39:26.033Z,-1.78
2023-01-25T20:44:30.074Z,-1.77
2023-01-25T20:49:34.000Z,-1.76
2023-01-25T20:54:38.436Z,-1.76
2023-01-25T20:59:42.658Z,-1.76
2023-01-25T21:04:45.763Z,-1.77
2023-01-25T21:09:48.872Z,-1.77
2023-01-25T21:14:52.095Z,-1.80
2023-01-25T21:19:55.200Z,-1.81
2023-01-25T21:24:58.409Z,-1.82
2023-01-25T21:30:02.060Z,-1.82
2023-01-25T21:35:06.371Z,-1.80
2023-01-25T21:40:11.285Z,-1.78
2023-01-25T21:45:32.910Z,-1.77
2023-01-25T21:50:56.572Z,-1.73
2023-01-25T21:55:59.760Z,-1.70
2023-01-25T22:01:09.939Z,-1.71
2023-01-25T22:06:15.664Z,-1.71
2023-01-25T22:11:19.003Z,-1.71
2023-01-25T22:16:22.860Z,-1.71
2023-01-25T22:21:32.145Z,-1.70
2023-01-25T22:26:59.844Z,-1.69
2023-01-25T22:32:05.209Z,-1.68
2023-01-25T22:37:13.167Z,-1.67
2023-01-25T22:42:17.491Z,-1.68
2023-01-25T22:47:22.936Z,-1.69
2023-01-25T22:52:26.582Z,-1.69
2023-01-25T22:57:32.287Z,-1.69
2023-01-25T23:02:37.995Z,-1.69
2023-01-25T23:07:41.449Z,-1.68
2023-01-25T23:12:45.878Z,-1.67
2023-01-25T23:18:08.561Z,-1.68
2023-01-25T23:23:12.491Z,-1.69
2023-01-25T23:28:15.492Z,-1.69
2023-01-25T23:33:19.081Z,-1.69
2023-01-25T23:38:22.727Z,-1.67
2023-01-25T23:43:25.637Z,-1.68
2023-01-25T23:48:28.848Z,-1.69
2023-01-25T23:53:32.371Z,-1.69
2023-01-25T23:58:37.218Z,-1.68
